Time;durP1;ratioP1;P1;durP2;ratioP2;P2;SDS_P1;SDS_P2;PMS_P1;PMS_P2;Temp;Humidity;BMP_temperature;BMP_pressure;BME280_temperature;BME280_humidity;BME280_pressure;Samples;Min_cycle;Max_cycle;Signal;HPM_P1;HPM_P2
2021/12/26 00:00:55;;;;;;;11.57;6.65;;;;;;;;;;5060275;28;20025;-80
2021/12/26 00:03:26;;;;;;;13.65;7.28;;;;;;;;;;5065317;28;20063;-81
2021/12/26 00:05:53;;;;;;;9.32;5.60;;;;;;;;;;5080030;28;20115;-79
2021/12/26 00:08:19;;;;;;;10.35;6.13;;;;;;;;;;5083923;28;20120;-80
2021/12/26 00:10:47;;;;;;;10.48;6.15;;;;;;;;;;5076674;28;20150;-79
2021/12/26 00:13:13;;;;;;;11.10;6.28;;;;;;;;;;5063974;28;20978;-80
2021/12/26 00:15:38;;;;;;;14.98;7.18;;;;;;;;;;5079837;28;20081;-80
2021/12/26 00:18:04;;;;;;;10.32;5.93;;;;;;;;;;5080140;28;20024;-81
2021/12/26 00:20:30;;;;;;;11.90;6.35;;;;;;;;;;5064991;28;20028;-79
2021/12/26 00:22:55;;;;;;;13.00;6.35;;;;;;;;;;5076629;28;20492;-79
2021/12/26 00:25:21;;;;;;;13.90;6.47;;;;;;;;;;5064863;28;20580;-79
2021/12/26 00:27:46;;;;;;;14.02;6.85;;;;;;;;;;5079325;28;20031;-80
2021/12/26 00:30:16;;;;;;;12.63;6.15;;;;;;;;;;5081737;28;20057;-79
2021/12/26 00:32:43;;;;;;;14.27;7.03;;;;;;;;;;5075522;28;20032;-79
2021/12/26 00:35:10;;;;;;;15.88;7.65;;;;;;;;;;5080247;28;20681;-80
2021/12/26 00:37:35;;;;;;;13.57;5.75;;;;;;;;;;5057898;28;20036;-81
2021/12/26 00:40:01;;;;;;;16.90;8.02;;;;;;;;;;5079813;28;20048;-80
2021/12/26 00:42:26;;;;;;;12.40;7.28;;;;;;;;;;5060590;28;20119;-79
2021/12/26 00:44:52;;;;;;;8.98;5.47;;;;;;;;;;5074946;28;20070;-79
2021/12/26 00:47:17;;;;;;;7.18;4.47;;;;;;;;;;5079098;28;20028;-80
2021/12/26 00:49:43;;;;;;;11.10;5.40;;;;;;;;;;5054715;28;20028;-80
2021/12/26 00:52:09;;;;;;;7.85;4.47;;;;;;;;;;5078459;28;20460;-80
2021/12/26 00:54:35;;;;;;;6.22;4.03;;;;;;;;;;5086602;28;20069;-81
2021/12/26 00:57:01;;;;;;;7.55;4.20;;;;;;;;;;5062084;28;20091;-80
2021/12/26 00:59:27;;;;;;;12.00;5.70;;;;;;;;;;5090290;28;20524;-80
2021/12/26 01:01:54;;;;;;;7.40;4.45;;;;;;;;;;5062741;28;20044;-80
2021/12/26 01:04:21;;;;;;;7.00;4.07;;;;;;;;;;5085924;28;20016;-80
2021/12/26 01:06:46;;;;;;;10.27;4.22;;;;;;;;;;5079851;28;20032;-80
2021/12/26 01:09:16;;;;;;;6.97;3.67;;;;;;;;;;5086463;28;20035;-80
2021/12/26 01:11:48;;;;;;;5.93;3.85;;;;;;;;;;5082017;28;20026;-81
2021/12/26 01:14:15;;;;;;;7.30;3.95;;;;;;;;;;5056977;28;20139;-81
2021/12/26 01:16:41;;;;;;;8.80;4.70;;;;;;;;;;5085394;28;20031;-81
2021/12/26 01:19:13;;;;;;;7.43;3.45;;;;;;;;;;5074984;28;20033;-79
2021/12/26 01:21:41;;;;;;;5.47;3.92;;;;;;;;;;5075243;28;20044;-80
2021/12/26 01:24:12;;;;;;;6.70;4.30;;;;;;;;;;5067372;28;20054;-80
2021/12/26 01:26:38;;;;;;;10.23;5.07;;;;;;;;;;5076866;28;20080;-80
2021/12/26 01:29:05;;;;;;;12.05;5.40;;;;;;;;;;5081173;28;20444;-79
2021/12/26 01:31:31;;;;;;;8.10;3.75;;;;;;;;;;5076282;28;20036;-79
2021/12/26 01:34:00;;;;;;;6.25;3.17;;;;;;;;;;5078312;28;20085;-80
2021/12/26 01:36:28;;;;;;;5.88;4.38;;;;;;;;;;5077292;28;20464;-81
2021/12/26 01:38:56;;;;;;;8.40;3.88;;;;;;;;;;5068109;28;20103;-80
2021/12/26 01:41:22;;;;;;;6.63;3.28;;;;;;;;;;5056687;28;20123;-80
2021/12/26 01:43:52;;;;;;;6.97;3.70;;;;;;;;;;5076007;28;20091;-80
2021/12/26 01:46:19;;;;;;;5.85;3.38;;;;;;;;;;5077585;28;20028;-80
2021/12/26 01:48:44;;;;;;;9.38;3.92;;;;;;;;;;5058110;28;20368;-79
2021/12/26 01:51:10;;;;;;;5.35;3.08;;;;;;;;;;5077589;28;20032;-79
2021/12/26 01:53:38;;;;;;;6.68;4.30;;;;;;;;;;5080914;28;20450;-78
2021/12/26 01:56:12;;;;;;;4.75;3.30;;;;;;;;;;5075964;28;20029;-79
2021/12/26 01:58:39;;;;;;;7.50;4.50;;;;;;;;;;5058512;28;20032;-78
2021/12/26 02:01:07;;;;;;;9.57;4.53;;;;;;;;;;5085424;28;20032;-78
2021/12/26 02:03:33;;;;;;;8.20;5.15;;;;;;;;;;5078611;28;20532;-81
2021/12/26 02:05:59;;;;;;;11.30;5.50;;;;;;;;;;5072772;28;20495;-79
2021/12/26 02:08:25;;;;;;;8.65;5.28;;;;;;;;;;5078098;28;20067;-80
2021/12/26 02:10:50;;;;;;;9.68;6.15;;;;;;;;;;5078317;28;20034;-80
2021/12/26 02:13:16;;;;;;;9.35;5.93;;;;;;;;;;5082672;28;20103;-80
2021/12/26 02:15:42;;;;;;;7.85;4.55;;;;;;;;;;5079375;28;20092;-80
2021/12/26 02:18:08;;;;;;;7.90;4.10;;;;;;;;;;5058215;28;20085;-80
2021/12/26 02:21:09;;;;;;;4.90;3.55;;;;;;;;;;5056939;28;20075;-80
2021/12/26 02:23:46;;;;;;;6.10;3.55;;;;;;;;;;5075701;28;20096;-79
2021/12/26 02:28:42;;;;;;;4.82;3.05;;;;;;;;;;5076631;28;20100;-79
2021/12/26 02:31:08;;;;;;;7.05;3.92;;;;;;;;;;5080958;28;20054;-78
2021/12/26 02:33:34;;;;;;;5.53;3.80;;;;;;;;;;5079731;28;20512;-79
2021/12/26 02:36:01;;;;;;;8.55;4.35;;;;;;;;;;5075739;28;20056;-80
2021/12/26 02:38:27;;;;;;;6.60;4.28;;;;;;;;;;5076448;28;20032;-79
2021/12/26 02:40:55;;;;;;;6.90;4.53;;;;;;;;;;5080475;28;20028;-80
2021/12/26 02:43:22;;;;;;;9.88;5.47;;;;;;;;;;5085204;28;20035;-80
2021/12/26 02:45:48;;;;;;;8.38;5.05;;;;;;;;;;5078076;28;20119;-80
2021/12/26 02:48:14;;;;;;;17.95;10.52;;;;;;;;;;5084558;28;20153;-79
2021/12/26 02:50:41;;;;;;;13.35;7.28;;;;;;;;;;5084213;28;20048;-78
2021/12/26 02:53:09;;;;;;;11.60;6.43;;;;;;;;;;5082895;28;20099;-79
2021/12/26 02:55:35;;;;;;;13.98;6.75;;;;;;;;;;5080052;28;20058;-79
2021/12/26 02:58:05;;;;;;;16.08;7.88;;;;;;;;;;5080876;28;20032;-78
2021/12/26 03:00:33;;;;;;;10.77;6.25;;;;;;;;;;5080150;28;20475;-79
2021/12/26 03:03:02;;;;;;;13.40;6.70;;;;;;;;;;5076221;28;20031;-79
2021/12/26 03:05:35;;;;;;;11.98;6.85;;;;;;;;;;5084425;28;20409;-79
2021/12/26 03:08:00;;;;;;;10.00;5.78;;;;;;;;;;5066029;28;20042;-79
2021/12/26 03:10:27;;;;;;;10.27;5.90;;;;;;;;;;5081447;28;20024;-79
2021/12/26 03:12:56;;;;;;;7.72;4.93;;;;;;;;;;5076428;28;20027;-78
2021/12/26 03:15:23;;;;;;;9.13;4.50;;;;;;;;;;5057296;28;20032;-79
2021/12/26 03:17:48;;;;;;;6.72;3.65;;;;;;;;;;5085495;28;20068;-79
2021/12/26 03:20:18;;;;;;;7.70;3.90;;;;;;;;;;5079182;28;20051;-79
2021/12/26 03:22:44;;;;;;;6.85;3.97;;;;;;;;;;5082159;28;20044;-79
2021/12/26 03:25:17;;;;;;;5.60;3.25;;;;;;;;;;5079916;28;20028;-78
2021/12/26 03:27:43;;;;;;;10.05;4.60;;;;;;;;;;5071367;28;20115;-78
2021/12/26 03:30:12;;;;;;;5.38;3.83;;;;;;;;;;5087758;28;20436;-80
2021/12/26 03:32:38;;;;;;;6.77;4.40;;;;;;;;;;5082093;28;20357;-80
2021/12/26 03:35:04;;;;;;;7.72;4.60;;;;;;;;;;5078638;28;20043;-80
2021/12/26 03:37:29;;;;;;;6.68;4.30;;;;;;;;;;5084551;28;20039;-79
2021/12/26 03:39:56;;;;;;;6.60;4.43;;;;;;;;;;5065767;28;20047;-79
2021/12/26 03:42:22;;;;;;;7.88;3.47;;;;;;;;;;5077974;28;20082;-79
2021/12/26 03:44:49;;;;;;;5.75;3.15;;;;;;;;;;5057442;28;20021;-80
2021/12/26 03:47:15;;;;;;;5.07;2.85;;;;;;;;;;5080682;28;20028;-80
2021/12/26 03:49:40;;;;;;;6.60;3.10;;;;;;;;;;5077418;28;20037;-80
2021/12/26 03:52:06;;;;;;;5.53;2.97;;;;;;;;;;5084788;28;20031;-79
2021/12/26 03:54:32;;;;;;;5.60;3.50;;;;;;;;;;5060233;28;20111;-79
2021/12/26 03:57:00;;;;;;;5.50;3.25;;;;;;;;;;5079678;28;20467;-81
2021/12/26 03:59:27;;;;;;;8.68;3.15;;;;;;;;;;5082718;28;20107;-80
2021/12/26 04:01:53;;;;;;;7.63;4.22;;;;;;;;;;5073788;28;20507;-79
2021/12/26 04:04:19;;;;;;;8.20;4.07;;;;;;;;;;5077958;28;20468;-80
2021/12/26 04:06:45;;;;;;;7.18;4.13;;;;;;;;;;5082919;28;20031;-80
2021/12/26 04:09:10;;;;;;;8.57;5.05;;;;;;;;;;5067913;28;20036;-79
2021/12/26 04:11:39;;;;;;;6.55;4.15;;;;;;;;;;5077258;28;20142;-80
2021/12/26 04:14:04;;;;;;;10.07;4.50;;;;;;;;;;5079983;28;20112;-80
2021/12/26 04:16:30;;;;;;;6.57;3.97;;;;;;;;;;5083143;28;20103;-80
2021/12/26 04:18:56;;;;;;;8.13;3.95;;;;;;;;;;5079744;28;20029;-80
2021/12/26 04:21:22;;;;;;;6.25;3.72;;;;;;;;;;5074110;28;20044;-79
2021/12/26 04:23:47;;;;;;;7.78;4.20;;;;;;;;;;5079860;28;20025;-78
2021/12/26 04:26:13;;;;;;;6.03;3.45;;;;;;;;;;5078288;28;20021;-80
2021/12/26 04:28:38;;;;;;;6.68;4.00;;;;;;;;;;5082219;28;20476;-80
2021/12/26 04:31:04;;;;;;;8.15;4.60;;;;;;;;;;5080826;28;20063;-80
2021/12/26 04:33:29;;;;;;;10.07;4.35;;;;;;;;;;5077822;28;20315;-79
2021/12/26 04:35:55;;;;;;;7.32;4.65;;;;;;;;;;5076483;28;20039;-80
2021/12/26 04:38:20;;;;;;;7.97;4.38;;;;;;;;;;5080762;28;20036;-80
2021/12/26 04:40:46;;;;;;;9.90;5.50;;;;;;;;;;5079975;28;20036;-80
2021/12/26 04:43:12;;;;;;;11.90;5.35;;;;;;;;;;5075142;28;20032;-81
2021/12/26 04:45:37;;;;;;;14.80;7.38;;;;;;;;;;5086973;28;20047;-80
2021/12/26 04:48:03;;;;;;;13.20;6.43;;;;;;;;;;5083470;28;20028;-80
2021/12/26 04:50:30;;;;;;;10.95;6.05;;;;;;;;;;5087807;28;20020;-80
2021/12/26 04:52:56;;;;;;;10.75;5.95;;;;;;;;;;5044474;28;20115;-79
2021/12/26 04:55:25;;;;;;;9.70;5.63;;;;;;;;;;5071732;28;20032;-79
2021/12/26 04:57:51;;;;;;;13.57;8.83;;;;;;;;;;5079437;28;20043;-79
2021/12/26 05:00:19;;;;;;;14.27;8.15;;;;;;;;;;5079680;28;20265;-79
2021/12/26 05:02:46;;;;;;;9.98;6.70;;;;;;;;;;5053111;28;20078;-78
2021/12/26 05:05:13;;;;;;;11.95;6.97;;;;;;;;;;5059242;28;20043;-78
2021/12/26 05:07:40;;;;;;;9.23;6.13;;;;;;;;;;5075941;28;20032;-78
2021/12/26 05:10:08;;;;;;;9.30;5.95;;;;;;;;;;5079669;28;20028;-78
2021/12/26 05:12:34;;;;;;;15.38;6.20;;;;;;;;;;5075757;28;20058;-80
2021/12/26 05:15:01;;;;;;;9.48;5.95;;;;;;;;;;5081011;28;20114;-79
2021/12/26 05:17:27;;;;;;;11.10;6.80;;;;;;;;;;5081255;28;20041;-78
2021/12/26 05:19:52;;;;;;;9.68;6.22;;;;;;;;;;5077420;28;20043;-79
2021/12/26 05:22:20;;;;;;;9.57;5.63;;;;;;;;;;5083725;28;20444;-80
2021/12/26 05:24:45;;;;;;;10.10;6.13;;;;;;;;;;5068172;28;20032;-79
2021/12/26 05:27:11;;;;;;;9.60;5.68;;;;;;;;;;5077825;28;20029;-79
2021/12/26 05:29:37;;;;;;;11.48;7.38;;;;;;;;;;5082785;28;20023;-80
2021/12/26 05:32:02;;;;;;;15.50;7.30;;;;;;;;;;5081672;28;20024;-79
2021/12/26 05:34:28;;;;;;;9.55;6.03;;;;;;;;;;5061638;28;20146;-79
2021/12/26 05:36:53;;;;;;;10.00;6.00;;;;;;;;;;5061381;28;20033;-79
2021/12/26 05:39:19;;;;;;;10.70;6.18;;;;;;;;;;5059999;28;20537;-80
2021/12/26 05:41:44;;;;;;;14.15;7.35;;;;;;;;;;5075092;28;20029;-81
2021/12/26 05:44:10;;;;;;;8.20;5.50;;;;;;;;;;5056390;28;20141;-81
2021/12/26 05:46:37;;;;;;;8.93;5.93;;;;;;;;;;5056043;28;20024;-82
2021/12/26 05:49:03;;;;;;;11.50;6.03;;;;;;;;;;5081505;28;20100;-80
2021/12/26 05:51:28;;;;;;;13.07;6.93;;;;;;;;;;5080439;28;20126;-81
2021/12/26 05:53:54;;;;;;;11.57;6.97;;;;;;;;;;5055814;28;20083;-80
2021/12/26 05:56:19;;;;;;;11.07;7.45;;;;;;;;;;5081001;28;20024;-80
2021/12/26 05:58:45;;;;;;;15.90;7.85;;;;;;;;;;5081555;28;20407;-81
2021/12/26 06:01:11;;;;;;;14.70;6.68;;;;;;;;;;5071228;28;20028;-81
2021/12/26 06:03:36;;;;;;;11.48;5.90;;;;;;;;;;5076973;28;20430;-80
2021/12/26 06:06:03;;;;;;;9.50;6.10;;;;;;;;;;5078471;28;20032;-80
2021/12/26 06:08:29;;;;;;;10.07;6.05;;;;;;;;;;5063973;28;20372;-81
2021/12/26 06:10:54;;;;;;;11.32;6.18;;;;;;;;;;5082192;28;20028;-80
2021/12/26 06:13:20;;;;;;;13.10;7.30;;;;;;;;;;5060868;28;20032;-81
2021/12/26 06:15:45;;;;;;;28.88;12.98;;;;;;;;;;5052877;28;20027;-79
2021/12/26 06:18:12;;;;;;;19.25;9.27;;;;;;;;;;5078667;28;20032;-79
2021/12/26 06:20:38;;;;;;;22.80;9.88;;;;;;;;;;5077946;28;20111;-81
2021/12/26 06:23:06;;;;;;;16.55;9.10;;;;;;;;;;5075493;28;20032;-81
2021/12/26 06:25:33;;;;;;;17.70;10.13;;;;;;;;;;5075338;28;20043;-82
2021/12/26 06:27:58;;;;;;;18.25;11.27;;;;;;;;;;5054213;28;20036;-79
2021/12/26 06:30:24;;;;;;;15.98;9.60;;;;;;;;;;5071407;28;20071;-81
2021/12/26 06:32:50;;;;;;;14.20;9.27;;;;;;;;;;5083163;28;20065;-81
2021/12/26 06:35:15;;;;;;;14.77;8.55;;;;;;;;;;5057779;28;20035;-81
2021/12/26 06:37:41;;;;;;;17.50;10.18;;;;;;;;;;5055403;28;20434;-80
2021/12/26 06:40:10;;;;;;;15.52;9.65;;;;;;;;;;5078447;28;20063;-80
2021/12/26 06:42:41;;;;;;;14.43;9.20;;;;;;;;;;5052411;28;20045;-79
2021/12/26 06:45:12;;;;;;;17.15;11.20;;;;;;;;;;5052248;28;20460;-79
2021/12/26 06:47:38;;;;;;;23.30;13.98;;;;;;;;;;5047136;28;20031;-80
2021/12/26 06:50:07;;;;;;;18.27;12.32;;;;;;;;;;5047328;28;20025;-79
2021/12/26 06:52:32;;;;;;;18.13;12.13;;;;;;;;;;5050644;28;20063;-80
2021/12/26 06:54:58;;;;;;;19.30;12.93;;;;;;;;;;5047972;28;20056;-82
2021/12/26 06:57:23;;;;;;;18.75;11.45;;;;;;;;;;5031170;28;20048;-79
2021/12/26 06:59:49;;;;;;;15.95;10.30;;;;;;;;;;5050732;28;20380;-81
2021/12/26 07:02:14;;;;;;;19.42;11.55;;;;;;;;;;5050654;28;20690;-81
2021/12/26 07:04:40;;;;;;;17.55;11.00;;;;;;;;;;5050442;28;20685;-80
2021/12/26 07:07:05;;;;;;;21.05;13.38;;;;;;;;;;5048473;28;20043;-79
2021/12/26 07:09:31;;;;;;;21.17;14.32;;;;;;;;;;5031110;28;20051;-80
2021/12/26 07:11:56;;;;;;;28.50;16.48;;;;;;;;;;5050884;28;20048;-81
2021/12/26 07:14:22;;;;;;;24.30;16.33;;;;;;;;;;5049360;28;20035;-85
2021/12/26 07:16:48;;;;;;;25.20;17.90;;;;;;;;;;5048358;28;20511;-81
2021/12/26 07:19:13;;;;;;;30.38;18.65;;;;;;;;;;5053366;28;20444;-80
2021/12/26 07:21:40;;;;;;;27.58;18.13;;;;;;;;;;5052005;28;20639;-80
2021/12/26 07:24:06;;;;;;;23.63;14.88;;;;;;;;;;5053699;28;20550;-79
2021/12/26 07:26:31;;;;;;;25.33;13.82;;;;;;;;;;5047295;28;20457;-80
2021/12/26 07:28:57;;;;;;;21.50;13.02;;;;;;;;;;5053828;28;20028;-81
2021/12/26 07:31:22;;;;;;;23.33;14.27;;;;;;;;;;5051102;28;20388;-81
2021/12/26 07:33:48;;;;;;;44.03;18.77;;;;;;;;;;5052414;28;20029;-80
2021/12/26 07:36:14;;;;;;;18.45;11.20;;;;;;;;;;5050062;28;20036;-80
2021/12/26 07:38:39;;;;;;;15.75;9.65;;;;;;;;;;5050232;28;20060;-79
2021/12/26 07:41:05;;;;;;;13.85;9.25;;;;;;;;;;5049195;28;20029;-82
2021/12/26 07:43:30;;;;;;;13.77;9.23;;;;;;;;;;5047901;28;20035;-81
2021/12/26 07:45:56;;;;;;;13.95;7.85;;;;;;;;;;5039204;28;20393;-80
2021/12/26 07:48:21;;;;;;;14.60;8.85;;;;;;;;;;5050412;28;20042;-80
2021/12/26 07:50:47;;;;;;;20.63;12.07;;;;;;;;;;5048377;28;20108;-81
2021/12/26 07:53:12;;;;;;;23.25;12.32;;;;;;;;;;5051424;28;20035;-80
2021/12/26 07:55:39;;;;;;;18.58;10.35;;;;;;;;;;5053909;28;20452;-80
2021/12/26 07:58:05;;;;;;;18.73;10.27;;;;;;;;;;5045578;28;20033;-80
2021/12/26 08:00:31;;;;;;;16.80;8.38;;;;;;;;;;5049072;28;20033;-80
2021/12/26 08:02:58;;;;;;;21.02;9.43;;;;;;;;;;5047530;28;20044;-79
2021/12/26 08:05:24;;;;;;;17.40;8.48;;;;;;;;;;5040531;28;20453;-80
2021/12/26 08:07:50;;;;;;;12.20;7.20;;;;;;;;;;5046752;28;20521;-80
2021/12/26 08:10:15;;;;;;;12.07;6.00;;;;;;;;;;5050740;28;20031;-78
2021/12/26 08:12:41;;;;;;;7.85;5.07;;;;;;;;;;5048090;28;20044;-80
2021/12/26 08:15:07;;;;;;;10.18;5.85;;;;;;;;;;5035413;28;20115;-79
2021/12/26 08:17:33;;;;;;;11.00;6.60;;;;;;;;;;5044105;28;20022;-80
2021/12/26 08:19:59;;;;;;;33.58;20.60;;;;;;;;;;5041973;28;20060;-79
2021/12/26 08:22:25;;;;;;;26.33;15.90;;;;;;;;;;5052477;28;20051;-79
2021/12/26 08:24:51;;;;;;;12.48;8.07;;;;;;;;;;5058466;28;20028;-81
2021/12/26 08:27:17;;;;;;;14.00;9.00;;;;;;;;;;5043027;28;20471;-81
2021/12/26 08:29:42;;;;;;;18.02;11.65;;;;;;;;;;5050075;28;20095;-79
2021/12/26 08:32:12;;;;;;;17.27;11.35;;;;;;;;;;5044903;28;20468;-80
2021/12/26 08:34:38;;;;;;;9.40;6.72;;;;;;;;;;5048754;28;20043;-77
2021/12/26 08:37:04;;;;;;;10.43;5.97;;;;;;;;;;5038782;28;20476;-79
2021/12/26 08:39:41;;;;;;;15.75;10.57;;;;;;;;;;5041606;28;20075;-81
2021/12/26 08:42:08;;;;;;;9.13;6.45;;;;;;;;;;5044167;28;20025;-79
2021/12/26 08:44:35;;;;;;;10.73;6.47;;;;;;;;;;5039209;28;20038;-78
2021/12/26 08:47:02;;;;;;;11.48;6.88;;;;;;;;;;5029979;28;20045;-79
2021/12/26 08:49:28;;;;;;;9.65;6.65;;;;;;;;;;5033585;28;20102;-79
2021/12/26 08:51:53;;;;;;;8.77;5.55;;;;;;;;;;5042822;28;20017;-80
2021/12/26 08:54:22;;;;;;;10.25;5.47;;;;;;;;;;5032387;28;20032;-79
2021/12/26 08:56:48;;;;;;;8.85;5.68;;;;;;;;;;5052019;28;20028;-78
2021/12/26 08:59:14;;;;;;;8.20;5.30;;;;;;;;;;5046664;28;20471;-80
2021/12/26 09:01:40;;;;;;;6.50;3.40;;;;;;;;;;5050466;28;20021;-80
2021/12/26 09:04:06;;;;;;;7.93;4.43;;;;;;;;;;5050626;28;20029;-80
2021/12/26 09:06:32;;;;;;;6.35;3.47;;;;;;;;;;5044773;28;20030;-77
2021/12/26 09:08:58;;;;;;;5.82;3.83;;;;;;;;;;5043451;28;20031;-81
2021/12/26 09:11:24;;;;;;;16.80;10.15;;;;;;;;;;5048757;28;20392;-78
2021/12/26 09:13:49;;;;;;;15.15;6.45;;;;;;;;;;5049421;28;20025;-80
2021/12/26 09:16:15;;;;;;;30.58;19.83;;;;;;;;;;5049997;28;20028;-82
2021/12/26 09:18:42;;;;;;;16.42;9.32;;;;;;;;;;5045937;28;20029;-78
2021/12/26 09:21:07;;;;;;;12.05;5.90;;;;;;;;;;5029585;28;20095;-79
2021/12/26 09:23:33;;;;;;;9.10;5.57;;;;;;;;;;5031498;28;20041;-81
2021/12/26 09:25:59;;;;;;;10.85;5.97;;;;;;;;;;5028197;28;20062;-80
2021/12/26 09:28:25;;;;;;;9.77;5.30;;;;;;;;;;5028740;28;20025;-79
2021/12/26 09:30:51;;;;;;;11.77;5.80;;;;;;;;;;5031183;28;20033;-79
2021/12/26 09:33:19;;;;;;;11.98;7.03;;;;;;;;;;5014555;28;20026;-79
2021/12/26 09:35:49;;;;;;;18.17;10.15;;;;;;;;;;5030981;28;20021;-79
2021/12/26 09:38:17;;;;;;;13.10;8.82;;;;;;;;;;5031433;28;20060;-78
2021/12/26 09:40:43;;;;;;;12.15;6.70;;;;;;;;;;5021868;28;20033;-79
2021/12/26 09:43:09;;;;;;;12.30;7.45;;;;;;;;;;5031119;28;20075;-79
2021/12/26 09:45:34;;;;;;;12.73;7.50;;;;;;;;;;5022613;28;20053;-80
2021/12/26 09:48:00;;;;;;;9.43;6.18;;;;;;;;;;5031007;28;20453;-79
2021/12/26 09:50:26;;;;;;;10.15;5.93;;;;;;;;;;5031536;28;20382;-80
2021/12/26 09:52:55;;;;;;;8.40;4.93;;;;;;;;;;5033254;28;20041;-79
2021/12/26 09:55:21;;;;;;;24.33;14.07;;;;;;;;;;5031635;28;20026;-77
2021/12/26 09:57:47;;;;;;;55.38;31.60;;;;;;;;;;5031074;28;20057;-78
2021/12/26 10:00:37;;;;;;;19.55;13.35;;;;;;;;;;5031936;28;20067;-78
2021/12/26 10:03:12;;;;;;;13.90;7.50;;;;;;;;;;5029383;28;20033;-80
2021/12/26 10:05:59;;;;;;;9.15;6.18;;;;;;;;;;5030930;28;20028;-77
2021/12/26 10:08:25;;;;;;;10.02;5.85;;;;;;;;;;5025809;28;20025;-80
2021/12/26 10:11:10;;;;;;;8.63;5.22;;;;;;;;;;5031727;28;20477;-79
2021/12/26 10:13:47;;;;;;;9.77;5.47;;;;;;;;;;5030082;28;20039;-79
2021/12/26 10:16:15;;;;;;;11.32;6.35;;;;;;;;;;5030373;28;20040;-78
2021/12/26 10:18:42;;;;;;;9.25;6.78;;;;;;;;;;5012204;28;20105;-79
2021/12/26 10:21:31;;;;;;;9.85;6.32;;;;;;;;;;5036450;28;20049;-78
2021/12/26 10:24:02;;;;;;;9.07;5.93;;;;;;;;;;5047676;28;20029;-78
2021/12/26 10:26:32;;;;;;;11.95;6.35;;;;;;;;;;5026567;28;20312;-78
2021/12/26 10:29:16;;;;;;;9.15;5.93;;;;;;;;;;5047208;28;20528;-77
2021/12/26 10:32:02;;;;;;;9.63;6.28;;;;;;;;;;5046293;28;20025;-78
2021/12/26 10:34:46;;;;;;;182.73;94.28;;;;;;;;;;5047700;28;20025;-78
2021/12/26 10:37:32;;;;;;;64.60;33.47;;;;;;;;;;5044739;28;20034;-80
2021/12/26 10:40:01;;;;;;;10.07;7.03;;;;;;;;;;5031549;28;20036;-82
2021/12/26 10:42:34;;;;;;;12.43;7.45;;;;;;;;;;5047639;28;20029;-78
2021/12/26 10:45:21;;;;;;;11.25;7.07;;;;;;;;;;5032783;28;20036;-79
2021/12/26 10:47:52;;;;;;;10.18;6.90;;;;;;;;;;5039068;28;20021;-80
2021/12/26 10:50:22;;;;;;;9.15;6.25;;;;;;;;;;5028152;28;20060;-78
2021/12/26 10:52:50;;;;;;;;;;;;;;;;;;5039611;28;20047;-80
2021/12/26 10:55:19;;;;;;;7.65;4.82;;;;;;;;;;5044386;28;19924;-79
2021/12/26 10:57:49;;;;;;;7.07;4.93;;;;;;;;;;5052015;28;20052;-80
2021/12/26 11:00:33;;;;;;;9.90;5.00;;;;;;;;;;5053037;28;20029;-80
2021/12/26 11:03:11;;;;;;;9.50;6.13;;;;;;;;;;5043187;28;20032;-79
2021/12/26 11:05:41;;;;;;;9.75;6.68;;;;;;;;;;5052240;28;20484;-80
2021/12/26 11:08:11;;;;;;;12.10;5.90;;;;;;;;;;5052918;28;20431;-79
2021/12/26 11:10:40;;;;;;;8.63;6.28;;;;;;;;;;5049651;28;20431;-80
2021/12/26 11:13:08;;;;;;;13.60;6.93;;;;;;;;;;5036800;28;20025;-78
2021/12/26 11:15:40;;;;;;;9.00;6.40;;;;;;;;;;5048543;28;20029;-80
2021/12/26 11:18:12;;;;;;;8.88;5.00;;;;;;;;;;5053162;28;20035;-79
2021/12/26 11:20:40;;;;;;;9.52;5.38;;;;;;;;;;5053764;28;20090;-80
2021/12/26 11:23:15;;;;;;;153.52;81.40;;;;;;;;;;5035702;28;20438;-79
2021/12/26 11:25:47;;;;;;;56.85;35.05;;;;;;;;;;5051899;28;20021;-80
2021/12/26 11:28:15;;;;;;;13.88;8.90;;;;;;;;;;5048175;28;20032;-80
2021/12/26 11:30:42;;;;;;;11.93;7.35;;;;;;;;;;5050675;28;20017;-80
2021/12/26 11:33:09;;;;;;;14.10;6.78;;;;;;;;;;5034095;28;20499;-80
2021/12/26 11:35:37;;;;;;;12.25;6.18;;;;;;;;;;5047914;28;20059;-78
2021/12/26 11:38:04;;;;;;;9.98;6.57;;;;;;;;;;5048109;28;20057;-80
2021/12/26 11:40:31;;;;;;;11.70;5.50;;;;;;;;;;5054174;28;20492;-79
2021/12/26 11:43:20;;;;;;;8.40;5.35;;;;;;;;;;5047957;28;20060;-77
2021/12/26 11:45:50;;;;;;;10.35;6.60;;;;;;;;;;5043535;28;20017;-76
2021/12/26 11:48:24;;;;;;;8.07;5.05;;;;;;;;;;5049108;28;20037;-81
2021/12/26 11:51:21;;;;;;;8.15;6.15;;;;;;;;;;5043201;28;20021;-79
2021/12/26 11:54:05;;;;;;;9.07;4.40;;;;;;;;;;5051575;28;20512;-79
2021/12/26 11:56:45;;;;;;;15.75;7.88;;;;;;;;;;5050329;28;20052;-79
2021/12/26 11:59:38;;;;;;;12.15;7.30;;;;;;;;;;5042955;28;20029;-80
2021/12/26 12:02:04;;;;;;;11.52;7.00;;;;;;;;;;5048888;28;20017;-79
2021/12/26 12:04:30;;;;;;;14.70;7.25;;;;;;;;;;5052311;28;20044;-79
2021/12/26 12:07:04;;;;;;;16.15;7.82;;;;;;;;;;5049751;28;20480;-79
2021/12/26 12:09:38;;;;;;;12.48;7.10;;;;;;;;;;5035381;28;20089;-79
2021/12/26 12:12:12;;;;;;;11.75;7.00;;;;;;;;;;5040518;28;20472;-79
2021/12/26 12:14:59;;;;;;;13.20;7.05;;;;;;;;;;5046215;28;20492;-80
2021/12/26 12:17:28;;;;;;;12.80;7.25;;;;;;;;;;5045542;28;20033;-79
2021/12/26 12:20:06;;;;;;;12.32;7.38;;;;;;;;;;5042767;28;20366;-79
2021/12/26 12:22:32;;;;;;;42.20;24.92;;;;;;;;;;5043964;28;20055;-80
2021/12/26 12:25:38;;;;;;;21.98;12.88;;;;;;;;;;5046840;28;20025;-80
2021/12/26 12:28:08;;;;;;;13.27;7.00;;;;;;;;;;5036572;28;20036;-79
2021/12/26 12:30:34;;;;;;;;;;;;;;;;;;5043127;28;20503;-80
2021/12/26 12:33:21;;;;;;;12.13;7.43;;;;;;;;;;5045449;28;19917;-80
2021/12/26 12:36:00;;;;;;;12.50;6.05;;;;;;;;;;5039316;28;20515;-79
2021/12/26 12:38:39;;;;;;;12.38;6.85;;;;;;;;;;5048545;28;20020;-80
2021/12/26 12:41:27;;;;;;;15.23;6.40;;;;;;;;;;5043494;28;20473;-81
2021/12/26 12:43:54;;;;;;;11.95;7.82;;;;;;;;;;5045952;28;20406;-83
2021/12/26 12:46:21;;;;;;;21.85;11.30;;;;;;;;;;5045744;28;20066;-80
2021/12/26 12:49:08;;;;;;;29.73;14.20;;;;;;;;;;5049012;28;20033;-81
2021/12/26 12:51:37;;;;;;;28.20;11.93;;;;;;;;;;5041645;28;20021;-80
2021/12/26 12:54:19;;;;;;;20.85;10.40;;;;;;;;;;5046889;28;20383;-79
2021/12/26 12:56:46;;;;;;;22.55;12.07;;;;;;;;;;5049477;28;20025;-79
2021/12/26 12:59:14;;;;;;;18.23;8.98;;;;;;;;;;5045552;28;20104;-80
2021/12/26 13:01:58;;;;;;;17.35;7.30;;;;;;;;;;5046759;28;20025;-81
2021/12/26 13:04:30;;;;;;;10.00;6.53;;;;;;;;;;5050041;28;20076;-79
2021/12/26 13:06:58;;;;;;;16.42;7.75;;;;;;;;;;5028916;28;20037;-78
2021/12/26 13:09:26;;;;;;;12.38;7.97;;;;;;;;;;5041388;28;20079;-79
2021/12/26 13:11:58;;;;;;;15.77;9.10;;;;;;;;;;5044826;28;20084;-79
2021/12/26 13:14:40;;;;;;;12.90;8.55;;;;;;;;;;5044202;28;20029;-78
2021/12/26 13:17:12;;;;;;;19.88;11.88;;;;;;;;;;5039178;28;20048;-80
2021/12/26 13:19:37;;;;;;;16.52;10.80;;;;;;;;;;5038997;28;20035;-79
2021/12/26 13:22:03;;;;;;;65.38;43.42;;;;;;;;;;5043171;28;20112;-79
2021/12/26 13:24:35;;;;;;;29.92;17.88;;;;;;;;;;5045806;28;20033;-78
2021/12/26 13:27:01;;;;;;;37.45;22.85;;;;;;;;;;5038937;28;20157;-78
2021/12/26 13:29:27;;;;;;;22.90;14.15;;;;;;;;;;5047967;28;20111;-79
2021/12/26 13:31:53;;;;;;;22.35;12.98;;;;;;;;;;5051491;28;20425;-79
2021/12/26 13:34:18;;;;;;;26.17;14.70;;;;;;;;;;5047217;28;20029;-78
2021/12/26 13:36:44;;;;;;;28.98;14.18;;;;;;;;;;5051559;28;20514;-79
2021/12/26 13:39:20;;;;;;;20.85;14.40;;;;;;;;;;5047530;28;20123;-79
2021/12/26 13:41:48;;;;;;;26.25;13.73;;;;;;;;;;5043983;28;20048;-80
2021/12/26 13:44:15;;;;;;;28.98;15.50;;;;;;;;;;5052425;28;20376;-79
2021/12/26 13:46:41;;;;;;;18.92;12.50;;;;;;;;;;5050619;28;20078;-79
2021/12/26 13:49:12;;;;;;;21.50;12.35;;;;;;;;;;5050281;28;20426;-80
2021/12/26 13:51:41;;;;;;;22.25;12.25;;;;;;;;;;5048477;28;20028;-79
2021/12/26 13:54:15;;;;;;;16.05;9.02;;;;;;;;;;5035012;28;20033;-79
2021/12/26 13:56:47;;;;;;;16.75;11.13;;;;;;;;;;5044495;28;20025;-80
2021/12/26 13:59:31;;;;;;;21.27;12.98;;;;;;;;;;5043771;28;20110;-78
2021/12/26 14:01:58;;;;;;;24.70;13.55;;;;;;;;;;5038282;28;20048;-79
2021/12/26 14:04:25;;;;;;;20.80;12.00;;;;;;;;;;5051084;28;20029;-80
2021/12/26 14:06:50;;;;;;;24.38;12.23;;;;;;;;;;5050998;28;20464;-79
2021/12/26 14:09:16;;;;;;;18.55;11.13;;;;;;;;;;5043943;28;20029;-79
2021/12/26 14:11:41;;;;;;;18.02;10.75;;;;;;;;;;5044491;28;20029;-80
2021/12/26 14:14:07;;;;;;;19.58;11.70;;;;;;;;;;5039232;28;20092;-79
2021/12/26 14:16:35;;;;;;;23.52;16.73;;;;;;;;;;5048538;28;20025;-79
2021/12/26 14:19:09;;;;;;;74.07;43.58;;;;;;;;;;5045513;28;20044;-80
2021/12/26 14:21:50;;;;;;;27.77;14.75;;;;;;;;;;5046426;28;20045;-79
2021/12/26 14:24:23;;;;;;;20.27;11.90;;;;;;;;;;5047675;28;20021;-78
2021/12/26 14:26:52;;;;;;;26.35;12.80;;;;;;;;;;5043317;28;20025;-78
2021/12/26 14:29:21;;;;;;;20.23;12.25;;;;;;;;;;5043957;28;20049;-78
2021/12/26 14:31:50;;;;;;;29.08;19.42;;;;;;;;;;5042380;28;20021;-78
2021/12/26 14:34:23;;;;;;;18.20;11.73;;;;;;;;;;5046937;28;20435;-79
2021/12/26 14:36:56;;;;;;;16.60;11.32;;;;;;;;;;5047838;28;20032;-79
2021/12/26 14:39:41;;;;;;;23.98;15.82;;;;;;;;;;5046975;28;20484;-79
2021/12/26 14:42:16;;;;;;;12.25;6.72;;;;;;;;;;5046445;28;20060;-78